Time;durP1;ratioP1;P1;durP2;ratioP2;P2;SDS_P1;SDS_P2;PMS_P1;PMS_P2;Temp;Humidity;BMP_temperature;BMP_pressure;BME280_temperature;BME280_humidity;BME280_pressure;Samples;Min_cycle;Max_cycle;Signal;HPM_P1;HPM_P2
2022/10/18 00:00:52;;;;;;;7.67;6.97;;;;;;;;;;5055312;28;21007;-76
2022/10/18 00:03:19;;;;;;;8.80;7.20;;;;;;;;;;5055246;28;20433;-75
2022/10/18 00:05:47;;;;;;;8.67;7.77;;;;;;;;;;5056966;28;20442;-76
2022/10/18 00:08:14;;;;;;;13.67;7.70;;;;;;;;;;5060626;28;20843;-76
2022/10/18 00:10:43;;;;;;;10.87;7.80;;;;;;;;;;5061153;28;20461;-75
2022/10/18 00:13:10;;;;;;;7.80;6.83;;;;;;;;;;5078518;28;20476;-75
2022/10/18 00:15:37;;;;;;;10.50;7.80;;;;;;;;;;5078044;28;20440;-75
2022/10/18 00:18:04;;;;;;;9.83;7.97;;;;;;;;;;5076678;28;20440;-76
2022/10/18 00:20:31;;;;;;;13.80;7.70;;;;;;;;;;5075300;28;20481;-74
2022/10/18 00:22:58;;;;;;;12.60;8.00;;;;;;;;;;5074110;28;20447;-76
2022/10/18 00:25:25;;;;;;;8.13;7.40;;;;;;;;;;5074068;28;20444;-75
2022/10/18 00:27:54;;;;;;;15.23;7.30;;;;;;;;;;5072818;28;20443;-76
2022/10/18 00:30:21;;;;;;;9.13;8.20;;;;;;;;;;5072554;28;20461;-75
2022/10/18 00:32:48;;;;;;;13.00;8.30;;;;;;;;;;5079633;28;20445;-76
2022/10/18 00:35:15;;;;;;;9.67;7.47;;;;;;;;;;5086575;28;20476;-75
2022/10/18 00:37:42;;;;;;;13.50;8.23;;;;;;;;;;5087138;28;20456;-75
2022/10/18 00:40:10;;;;;;;8.63;7.83;;;;;;;;;;5086221;28;20823;-75
2022/10/18 00:42:38;;;;;;;8.80;8.00;;;;;;;;;;5087141;28;20437;-75
2022/10/18 00:45:18;;;;;;;8.90;8.00;;;;;;;;;;5087936;28;20447;-75
2022/10/18 00:47:47;;;;;;;10.67;7.97;;;;;;;;;;5087566;28;20445;-76
2022/10/18 00:50:14;;;;;;;10.47;8.70;;;;;;;;;;5072236;28;20451;-76
2022/10/18 00:52:42;;;;;;;8.80;7.30;;;;;;;;;;5071725;28;20440;-76
2022/10/18 00:55:10;;;;;;;11.53;7.57;;;;;;;;;;5071796;28;20477;-76
2022/10/18 00:57:38;;;;;;;11.50;8.43;;;;;;;;;;5071858;28;20451;-77
2022/10/18 01:00:08;;;;;;;8.13;6.90;;;;;;;;;;5072310;28;20444;-75
2022/10/18 01:02:37;;;;;;;9.13;8.13;;;;;;;;;;5071739;28;20429;-75
2022/10/18 01:05:05;;;;;;;9.20;8.40;;;;;;;;;;5072290;28;20441;-75
2022/10/18 01:07:37;;;;;;;10.10;8.03;;;;;;;;;;5071920;28;20444;-76
2022/10/18 01:10:10;;;;;;;10.80;7.70;;;;;;;;;;5071642;28;20827;-76
2022/10/18 01:12:42;;;;;;;12.90;7.70;;;;;;;;;;5060035;28;20434;-77
2022/10/18 01:15:12;;;;;;;11.53;7.77;;;;;;;;;;5051887;28;20492;-77
2022/10/18 01:17:48;;;;;;;9.73;8.57;;;;;;;;;;5052110;28;20441;-76
2022/10/18 01:20:23;;;;;;;9.00;8.20;;;;;;;;;;5051560;28;20448;-76
2022/10/18 01:22:56;;;;;;;9.80;8.63;;;;;;;;;;5050133;28;20456;-76
2022/10/18 01:25:30;;;;;;;9.10;8.27;;;;;;;;;;5051438;28;20930;-76
2022/10/18 01:27:59;;;;;;;9.23;8.03;;;;;;;;;;5051713;28;20477;-76
2022/10/18 01:30:47;;;;;;;8.43;7.53;;;;;;;;;;5051832;28;20469;-77
2022/10/18 01:33:19;;;;;;;10.87;7.73;;;;;;;;;;5050595;28;20441;-75
2022/10/18 01:35:49;;;;;;;11.30;7.60;;;;;;;;;;5051137;28;20446;-76
2022/10/18 01:38:17;;;;;;;9.13;7.80;;;;;;;;;;5051278;28;20456;-76
2022/10/18 01:40:46;;;;;;;8.30;7.47;;;;;;;;;;5051362;28;20499;-76
2022/10/18 01:43:14;;;;;;;11.83;7.80;;;;;;;;;;5050726;28;20960;-76
2022/10/18 01:45:42;;;;;;;10.17;7.93;;;;;;;;;;5051011;28;20809;-76
2022/10/18 01:48:09;;;;;;;10.87;8.47;;;;;;;;;;5051107;28;20465;-75
2022/10/18 01:50:38;;;;;;;8.63;7.70;;;;;;;;;;5051100;28;20473;-76
2022/10/18 01:53:05;;;;;;;10.77;8.10;;;;;;;;;;5050481;28;20906;-76
2022/10/18 01:55:34;;;;;;;9.90;7.50;;;;;;;;;;5050783;28;20477;-75
2022/10/18 01:58:05;;;;;;;8.33;7.10;;;;;;;;;;5050977;28;20442;-76
2022/10/18 02:00:35;;;;;;;11.00;6.83;;;;;;;;;;5051035;28;21141;-75
2022/10/18 02:03:05;;;;;;;7.90;7.10;;;;;;;;;;5050658;28;20445;-75
2022/10/18 02:05:39;;;;;;;10.20;7.27;;;;;;;;;;5050915;28;20442;-76
2022/10/18 02:08:12;;;;;;;8.80;6.70;;;;;;;;;;5051144;28;20544;-76
2022/10/18 02:10:42;;;;;;;9.90;7.40;;;;;;;;;;5050653;28;20473;-76
2022/10/18 02:13:10;;;;;;;8.00;7.30;;;;;;;;;;5050066;28;20445;-75
2022/10/18 02:15:40;;;;;;;8.70;7.70;;;;;;;;;;5050950;28;20493;-76
2022/10/18 02:18:10;;;;;;;7.63;6.83;;;;;;;;;;5051155;28;20941;-75
2022/10/18 02:20:38;;;;;;;9.13;7.13;;;;;;;;;;5050641;28;20470;-75
2022/10/18 02:23:06;;;;;;;8.93;6.77;;;;;;;;;;5050376;28;20889;-76
2022/10/18 02:25:36;;;;;;;8.73;7.40;;;;;;;;;;5050628;28;20436;-76
2022/10/18 02:28:03;;;;;;;10.57;6.77;;;;;;;;;;5050201;28;20457;-75
2022/10/18 02:30:33;;;;;;;8.27;6.80;;;;;;;;;;5050345;28;20465;-75
2022/10/18 02:33:04;;;;;;;8.13;7.00;;;;;;;;;;5049470;28;20452;-76
2022/10/18 02:35:33;;;;;;;10.23;6.70;;;;;;;;;;5050078;28;20855;-76
2022/10/18 02:38:02;;;;;;;7.23;6.63;;;;;;;;;;5050147;28;20920;-76
2022/10/18 02:40:30;;;;;;;10.00;6.53;;;;;;;;;;5050263;28;20464;-76
2022/10/18 02:42:59;;;;;;;7.93;6.30;;;;;;;;;;5049941;28;20452;-77
2022/10/18 02:45:26;;;;;;;6.93;6.23;;;;;;;;;;5050319;28;20456;-76
2022/10/18 02:47:53;;;;;;;7.93;6.70;;;;;;;;;;5050168;28;20461;-76
2022/10/18 02:50:20;;;;;;;8.40;6.40;;;;;;;;;;5049821;28;20472;-76
2022/10/18 02:52:47;;;;;;;13.83;6.80;;;;;;;;;;5050042;28;20446;-76
2022/10/18 02:55:14;;;;;;;8.40;7.07;;;;;;;;;;5050654;28;20485;-76
2022/10/18 02:57:41;;;;;;;7.70;6.40;;;;;;;;;;5050357;28;20450;-76
2022/10/18 03:00:11;;;;;;;7.10;6.40;;;;;;;;;;5050458;28;20460;-75
2022/10/18 03:02:38;;;;;;;10.47;7.27;;;;;;;;;;5049689;28;20800;-76
2022/10/18 03:05:05;;;;;;;8.47;6.50;;;;;;;;;;5050813;28;20453;-75
2022/10/18 03:07:32;;;;;;;7.90;6.40;;;;;;;;;;5051279;28;20442;-76
2022/10/18 03:09:59;;;;;;;7.83;6.67;;;;;;;;;;5050918;28;20452;-75
2022/10/18 03:12:26;;;;;;;8.57;6.50;;;;;;;;;;5060598;28;20445;-76
2022/10/18 03:14:53;;;;;;;8.97;6.77;;;;;;;;;;5070081;28;21121;-76
2022/10/18 03:17:22;;;;;;;7.00;6.30;;;;;;;;;;5070052;28;20452;-76
2022/10/18 03:19:49;;;;;;;7.87;7.07;;;;;;;;;;5070030;28;20948;-76
2022/10/18 03:22:16;;;;;;;7.07;6.40;;;;;;;;;;5070066;28;20501;-76
2022/10/18 03:24:44;;;;;;;9.00;6.10;;;;;;;;;;5069857;28;20444;-75
2022/10/18 03:27:11;;;;;;;8.67;6.20;;;;;;;;;;5070297;28;20480;-75
2022/10/18 03:29:38;;;;;;;6.83;6.30;;;;;;;;;;5070811;28;20452;-74
2022/10/18 03:32:06;;;;;;;7.33;5.90;;;;;;;;;;5084907;28;20502;-75
2022/10/18 03:34:34;;;;;;;7.70;6.90;;;;;;;;;;5094196;28;20487;-76
2022/10/18 03:37:01;;;;;;;7.03;5.67;;;;;;;;;;5094861;28;20425;-75
2022/10/18 03:39:28;;;;;;;7.77;5.80;;;;;;;;;;5095404;28;20448;-76
2022/10/18 03:41:55;;;;;;;7.17;5.73;;;;;;;;;;5095427;28;20440;-76
2022/10/18 03:44:22;;;;;;;7.50;5.57;;;;;;;;;;5095169;28;20439;-75
2022/10/18 03:46:49;;;;;;;5.97;5.30;;;;;;;;;;5099033;28;20449;-75
2022/10/18 03:49:16;;;;;;;6.57;5.40;;;;;;;;;;5099087;28;20445;-75
2022/10/18 03:51:45;;;;;;;6.13;5.63;;;;;;;;;;5098783;28;20441;-75
2022/10/18 03:54:12;;;;;;;6.57;5.97;;;;;;;;;;5096192;28;20453;-75
2022/10/18 03:56:39;;;;;;;9.00;6.00;;;;;;;;;;5098708;28;20456;-76
2022/10/18 03:59:06;;;;;;;9.73;8.73;;;;;;;;;;5098565;28;20448;-75
2022/10/18 04:01:33;;;;;;;8.30;7.40;;;;;;;;;;5097326;28;20491;-77
2022/10/18 04:04:00;;;;;;;9.90;6.40;;;;;;;;;;5092722;28;20429;-75
2022/10/18 04:06:27;;;;;;;10.33;6.50;;;;;;;;;;5093895;28;20469;-76
2022/10/18 04:08:56;;;;;;;7.50;5.70;;;;;;;;;;5093564;28;20441;-75
2022/10/18 04:11:23;;;;;;;7.50;6.80;;;;;;;;;;5093841;28;20480;-76
2022/10/18 04:13:50;;;;;;;7.43;6.50;;;;;;;;;;5066869;28;20464;-76
2022/10/18 04:16:17;;;;;;;6.87;6.30;;;;;;;;;;5059845;28;20481;-75
2022/10/18 04:18:44;;;;;;;7.27;6.50;;;;;;;;;;5058025;28;20449;-75
2022/10/18 04:21:11;;;;;;;9.53;8.70;;;;;;;;;;5058664;28;20806;-75
2022/10/18 04:23:38;;;;;;;16.97;14.97;;;;;;;;;;5054116;28;20442;-76
2022/10/18 04:26:07;;;;;;;9.50;8.60;;;;;;;;;;5053332;28;20438;-76
2022/10/18 04:28:38;;;;;;;10.10;8.17;;;;;;;;;;5053442;28;20450;-76
2022/10/18 04:31:05;;;;;;;8.77;7.47;;;;;;;;;;5053484;28;20505;-76
2022/10/18 04:33:32;;;;;;;7.70;6.83;;;;;;;;;;5052482;28;20464;-76
2022/10/18 04:36:00;;;;;;;8.07;6.33;;;;;;;;;;5055240;28;20477;-75
2022/10/18 04:38:27;;;;;;;7.10;6.40;;;;;;;;;;5060170;28;20441;-76
2022/10/18 04:40:54;;;;;;;28.07;25.57;;;;;;;;;;5057298;28;20480;-76
2022/10/18 04:43:23;;;;;;;11.10;9.90;;;;;;;;;;5056421;28;20449;-75
2022/10/18 04:45:50;;;;;;;9.17;8.03;;;;;;;;;;5057214;28;20446;-76
2022/10/18 04:48:17;;;;;;;7.20;6.50;;;;;;;;;;5058565;28;20461;-76
2022/10/18 04:50:44;;;;;;;6.93;6.00;;;;;;;;;;5063293;28;20966;-76
2022/10/18 04:53:11;;;;;;;12.93;6.37;;;;;;;;;;5059885;28;20450;-76
2022/10/18 04:55:38;;;;;;;6.87;5.83;;;;;;;;;;5059525;28;20481;-76
2022/10/18 04:58:05;;;;;;;9.83;5.97;;;;;;;;;;5056525;28;20449;-75
2022/10/18 05:00:34;;;;;;;7.07;6.37;;;;;;;;;;5058203;28;20469;-76
2022/10/18 05:03:01;;;;;;;10.57;6.27;;;;;;;;;;5057836;28;20472;-78
2022/10/18 05:05:28;;;;;;;6.13;5.53;;;;;;;;;;5058491;28;20783;-76
2022/10/18 05:07:55;;;;;;;7.70;6.97;;;;;;;;;;5056782;28;20477;-76
2022/10/18 05:10:22;;;;;;;9.93;8.93;;;;;;;;;;5057495;28;20472;-76
2022/10/18 05:12:49;;;;;;;9.67;7.00;;;;;;;;;;5068837;28;20446;-75
2022/10/18 05:15:16;;;;;;;7.93;6.50;;;;;;;;;;5076117;28;20476;-76
2022/10/18 05:17:44;;;;;;;8.30;6.73;;;;;;;;;;5075879;28;20452;-77
2022/10/18 05:20:11;;;;;;;8.87;7.27;;;;;;;;;;5073113;28;20452;-76
2022/10/18 05:22:39;;;;;;;9.73;7.53;;;;;;;;;;5070707;28;20466;-75
2022/10/18 05:25:06;;;;;;;7.77;7.00;;;;;;;;;;5071065;28;20433;-76
2022/10/18 05:27:33;;;;;;;24.77;17.30;;;;;;;;;;5071076;28;20833;-75
2022/10/18 05:30:00;;;;;;;11.63;10.63;;;;;;;;;;5070963;28;20932;-76
2022/10/18 05:32:27;;;;;;;11.33;10.13;;;;;;;;;;5070979;28;20449;-77
2022/10/18 05:34:56;;;;;;;8.30;7.50;;;;;;;;;;5064934;28;20473;-76
2022/10/18 05:37:23;;;;;;;8.83;6.90;;;;;;;;;;5058635;28;20811;-77
2022/10/18 05:39:50;;;;;;;11.43;5.90;;;;;;;;;;5068636;28;20943;-76
2022/10/18 05:42:17;;;;;;;7.83;6.30;;;;;;;;;;5076624;28;20460;-76
2022/10/18 05:44:44;;;;;;;6.57;5.87;;;;;;;;;;5078048;28;20451;-76
2022/10/18 05:47:11;;;;;;;9.93;7.00;;;;;;;;;;5075008;28;20450;-77
2022/10/18 05:49:38;;;;;;;6.93;6.00;;;;;;;;;;5074866;28;20460;-75
2022/10/18 05:52:06;;;;;;;19.43;6.20;;;;;;;;;;5080116;28;20460;-76
2022/10/18 05:54:33;;;;;;;7.50;6.73;;;;;;;;;;5086107;28;20789;-75
2022/10/18 05:57:00;;;;;;;8.20;6.70;;;;;;;;;;5079183;28;20820;-75
2022/10/18 05:59:27;;;;;;;9.83;5.73;;;;;;;;;;5080700;28;20432;-75
2022/10/18 06:01:54;;;;;;;5.67;5.17;;;;;;;;;;5086453;28;20447;-77
2022/10/18 06:04:21;;;;;;;7.13;5.03;;;;;;;;;;5096191;28;20447;-76
2022/10/18 06:06:48;;;;;;;7.13;5.50;;;;;;;;;;5096237;28;20429;-77
2022/10/18 06:09:17;;;;;;;5.83;5.33;;;;;;;;;;5093514;28;20526;-76
2022/10/18 06:11:44;;;;;;;5.57;4.80;;;;;;;;;;5095659;28;20452;-76
2022/10/18 06:14:11;;;;;;;7.03;6.10;;;;;;;;;;5095884;28;20467;-76
2022/10/18 06:16:38;;;;;;;5.03;4.63;;;;;;;;;;5087984;28;20507;-75
2022/10/18 06:19:05;;;;;;;5.03;4.50;;;;;;;;;;5087652;28;20441;-76
2022/10/18 06:21:32;;;;;;;7.57;5.53;;;;;;;;;;5092043;28;20465;-76
2022/10/18 06:23:59;;;;;;;6.33;5.20;;;;;;;;;;5092524;28;20437;-74
2022/10/18 06:26:29;;;;;;;5.57;4.63;;;;;;;;;;5088026;28;21094;-75
2022/10/18 06:28:56;;;;;;;8.83;5.63;;;;;;;;;;5081294;28;20478;-75
2022/10/18 06:31:23;;;;;;;6.70;5.43;;;;;;;;;;5083577;28;20522;-74
2022/10/18 06:33:50;;;;;;;6.90;5.10;;;;;;;;;;5085678;28;20448;-75
2022/10/18 06:36:18;;;;;;;8.27;5.80;;;;;;;;;;5084683;28;20511;-74
2022/10/18 06:38:45;;;;;;;10.37;6.93;;;;;;;;;;5093003;28;20420;-75
2022/10/18 06:41:12;;;;;;;9.93;6.97;;;;;;;;;;5089107;28;20835;-76
2022/10/18 06:43:41;;;;;;;8.60;5.80;;;;;;;;;;5085422;28;20451;-75
2022/10/18 06:46:08;;;;;;;7.67;5.90;;;;;;;;;;5081800;28;20433;-75
2022/10/18 06:48:36;;;;;;;6.70;5.43;;;;;;;;;;5081047;28;20449;-75
2022/10/18 06:51:04;;;;;;;6.43;5.80;;;;;;;;;;5081678;28;21085;-77
2022/10/18 06:53:32;;;;;;;8.33;6.40;;;;;;;;;;5072656;28;20445;-76
2022/10/18 06:56:02;;;;;;;7.60;6.10;;;;;;;;;;5073404;28;20490;-75
2022/10/18 06:58:29;;;;;;;8.87;6.70;;;;;;;;;;5076335;28;20449;-77
2022/10/18 07:00:59;;;;;;;9.20;5.63;;;;;;;;;;5075947;28;20464;-76
2022/10/18 07:03:26;;;;;;;6.97;6.00;;;;;;;;;;5073787;28;20448;-76
2022/10/18 07:05:53;;;;;;;9.03;5.87;;;;;;;;;;5074888;28;20429;-75
2022/10/18 07:08:20;;;;;;;6.60;5.80;;;;;;;;;;5088038;28;20445;-75
2022/10/18 07:10:54;;;;;;;7.20;6.33;;;;;;;;;;5072381;28;20484;-76
2022/10/18 07:13:21;;;;;;;7.80;5.17;;;;;;;;;;5075444;28;21051;-75
2022/10/18 07:15:48;;;;;;;6.77;4.97;;;;;;;;;;5076440;28;20488;-74
2022/10/18 07:18:16;;;;;;;6.73;5.47;;;;;;;;;;5072484;28;20440;-77
2022/10/18 07:20:43;;;;;;;5.60;5.10;;;;;;;;;;5071821;28;20472;-75
2022/10/18 07:23:11;;;;;;;6.00;5.10;;;;;;;;;;5073063;28;20451;-76
2022/10/18 07:25:38;;;;;;;13.17;6.20;;;;;;;;;;5073639;28;20511;-75
2022/10/18 07:28:05;;;;;;;5.63;4.50;;;;;;;;;;5073528;28;20979;-76
2022/10/18 07:30:32;;;;;;;6.37;4.50;;;;;;;;;;5074522;28;20475;-75
2022/10/18 07:32:59;;;;;;;5.00;4.60;;;;;;;;;;5072818;28;20443;-76
2022/10/18 07:35:27;;;;;;;5.87;5.37;;;;;;;;;;5072675;28;20503;-77
2022/10/18 07:37:54;;;;;;;7.27;4.87;;;;;;;;;;5072533;28;20441;-76
2022/10/18 07:40:21;;;;;;;6.70;5.10;;;;;;;;;;5072927;28;20472;-77
2022/10/18 07:42:48;;;;;;;4.07;3.77;;;;;;;;;;5072007;28;20445;-76
2022/10/18 07:45:15;;;;;;;4.30;4.00;;;;;;;;;;5071890;28;20553;-76
2022/10/18 07:47:42;;;;;;;7.07;4.50;;;;;;;;;;5071919;28;20460;-75
2022/10/18 07:50:10;;;;;;;7.47;4.70;;;;;;;;;;5071454;28;20452;-76
2022/10/18 07:52:38;;;;;;;5.50;4.40;;;;;;;;;;5070518;28;20449;-76
2022/10/18 07:55:05;;;;;;;5.00;4.20;;;;;;;;;;5071772;28;20498;-76
2022/10/18 07:57:32;;;;;;;5.80;4.73;;;;;;;;;;5071102;28;20480;-76
2022/10/18 07:59:59;;;;;;;5.70;4.20;;;;;;;;;;5071460;28;20448;-77
2022/10/18 08:02:26;;;;;;;5.67;4.33;;;;;;;;;;5071700;28;20459;-76
2022/10/18 08:04:53;;;;;;;6.47;4.83;;;;;;;;;;5068699;28;21170;-76
2022/10/18 08:07:20;;;;;;;4.87;4.47;;;;;;;;;;5054218;28;20456;-76
2022/10/18 08:09:49;;;;;;;6.80;4.30;;;;;;;;;;5070368;28;20448;-76
2022/10/18 08:12:16;;;;;;;5.97;4.87;;;;;;;;;;5070675;28;20460;-77
2022/10/18 08:14:43;;;;;;;8.30;4.20;;;;;;;;;;5070032;28;20460;-76
2022/10/18 08:17:10;;;;;;;4.93;4.63;;;;;;;;;;5071102;28;20476;-76
2022/10/18 08:19:37;;;;;;;5.20;4.53;;;;;;;;;;5075659;28;20433;-75
2022/10/18 08:22:04;;;;;;;6.53;4.20;;;;;;;;;;5089156;28;20467;-77
2022/10/18 08:24:31;;;;;;;6.67;4.60;;;;;;;;;;5072377;28;20444;-76
2022/10/18 08:27:00;;;;;;;4.50;4.10;;;;;;;;;;5070592;28;20476;-76
2022/10/18 08:29:27;;;;;;;5.20;4.17;;;;;;;;;;5070080;28;20964;-76
2022/10/18 08:31:54;;;;;;;4.40;4.10;;;;;;;;;;5069681;28;20456;-76
2022/10/18 08:34:21;;;;;;;5.73;4.60;;;;;;;;;;5069381;28;20445;-79
2022/10/18 08:36:48;;;;;;;5.40;4.57;;;;;;;;;;5070139;28;20476;-76
2022/10/18 08:39:15;;;;;;;4.80;4.40;;;;;;;;;;5070483;28;20444;-79
2022/10/18 08:42:00;;;;;;;4.90;4.50;;;;;;;;;;5072407;28;20465;-78
2022/10/18 08:44:30;;;;;;;5.00;4.30;;;;;;;;;;5073878;28;20440;-78
2022/10/18 08:47:01;;;;;;;4.43;4.07;;;;;;;;;;5074093;28;20436;-76
2022/10/18 08:49:32;;;;;;;5.90;4.50;;;;;;;;;;5075765;28;20535;-77
2022/10/18 08:51:59;;;;;;;5.50;4.40;;;;;;;;;;5074965;28;20479;-77
2022/10/18 08:54:30;;;;;;;4.40;4.10;;;;;;;;;;5074332;28;20448;-77
2022/10/18 08:56:59;;;;;;;4.23;3.80;;;;;;;;;;5074060;28;20852;-76
2022/10/18 08:59:26;;;;;;;4.33;3.93;;;;;;;;;;5070174;28;20507;-76
2022/10/18 09:02:00;;;;;;;4.53;4.13;;;;;;;;;;5069608;28;20491;-76
2022/10/18 09:04:36;;;;;;;5.40;4.30;;;;;;;;;;5068688;28;20424;-77
2022/10/18 09:07:13;;;;;;;4.50;4.20;;;;;;;;;;5069119;28;20441;-76
2022/10/18 09:09:43;;;;;;;5.07;4.57;;;;;;;;;;5069356;28;20471;-76
2022/10/18 09:12:16;;;;;;;4.30;3.90;;;;;;;;;;5068978;28;20468;-76
2022/10/18 09:15:00;;;;;;;4.73;4.17;;;;;;;;;;5068536;28;20429;-76
2022/10/18 09:17:33;;;;;;;4.10;3.70;;;;;;;;;;5067284;28;20480;-76
2022/10/18 09:20:08;;;;;;;5.40;4.13;;;;;;;;;;5069020;28;20441;-76
2022/10/18 09:22:40;;;;;;;5.23;3.97;;;;;;;;;;5068124;28;20932;-76
2022/10/18 09:25:13;;;;;;;9.00;3.73;;;;;;;;;;5069213;28;20437;-77
2022/10/18 09:27:43;;;;;;;4.20;3.70;;;;;;;;;;5069113;28;20421;-75
2022/10/18 09:30:14;;;;;;;4.23;3.93;;;;;;;;;;5068495;28;20829;-76
2022/10/18 09:32:46;;;;;;;5.43;3.60;;;;;;;;;;5068253;28;20511;-77
2022/10/18 09:35:15;;;;;;;5.23;4.13;;;;;;;;;;5068985;28;20448;-75
2022/10/18 09:37:43;;;;;;;4.67;4.27;;;;;;;;;;5068810;28;20484;-76
2022/10/18 09:40:15;;;;;;;8.47;4.27;;;;;;;;;;5068204;28;20452;-77
2022/10/18 09:42:46;;;;;;;5.70;4.97;;;;;;;;;;5067642;28;20762;-76
2022/10/18 09:45:20;;;;;;;9.73;4.80;;;;;;;;;;5068826;28;20440;-77
2022/10/18 09:47:52;;;;;;;5.57;4.10;;;;;;;;;;5068441;28;20507;-76
2022/10/18 09:50:24;;;;;;;5.43;4.60;;;;;;;;;;5068585;28;20469;-75
2022/10/18 09:52:52;;;;;;;7.60;4.57;;;;;;;;;;5067648;28;20447;-75
2022/10/18 09:55:22;;;;;;;6.63;5.50;;;;;;;;;;5068069;28;20822;-75
2022/10/18 09:57:52;;;;;;;4.60;4.20;;;;;;;;;;5068277;28;20471;-77
2022/10/18 10:00:21;;;;;;;7.63;4.40;;;;;;;;;;5068392;28;20520;-77
2022/10/18 10:02:49;;;;;;;5.97;4.90;;;;;;;;;;5063605;28;20455;-76
2022/10/18 10:05:16;;;;;;;5.73;4.60;;;;;;;;;;5058183;28;20857;-77
2022/10/18 10:07:46;;;;;;;5.07;4.57;;;;;;;;;;5067894;28;20437;-78
2022/10/18 10:10:17;;;;;;;6.93;4.63;;;;;;;;;;5068014;28;20488;-76
2022/10/18 10:12:44;;;;;;;6.97;4.90;;;;;;;;;;5067549;28;20445;-76
2022/10/18 10:15:18;;;;;;;5.83;5.20;;;;;;;;;;5068140;28;20444;-76
2022/10/18 10:17:45;;;;;;;6.70;4.87;;;;;;;;;;5067923;28;20507;-77
2022/10/18 10:20:19;;;;;;;5.77;5.10;;;;;;;;;;5068053;28;20933;-76
2022/10/18 10:22:47;;;;;;;5.97;4.00;;;;;;;;;;5067668;28;20456;-77
2022/10/18 10:25:21;;;;;;;6.60;4.27;;;;;;;;;;5070920;28;20462;-77
2022/10/18 10:27:48;;;;;;;8.10;4.60;;;;;;;;;;5073249;28;20437;-76
2022/10/18 10:30:25;;;;;;;8.93;4.03;;;;;;;;;;5073820;28;20558;-77
2022/10/18 10:32:53;;;;;;;6.50;5.00;;;;;;;;;;5074353;28;20828;-76
2022/10/18 10:35:24;;;;;;;6.03;3.90;;;;;;;;;;5073382;28;20451;-77
2022/10/18 10:37:51;;;;;;;9.00;4.60;;;;;;;;;;5069855;28;20476;-75
2022/10/18 10:40:20;;;;;;;4.37;3.97;;;;;;;;;;5070190;28;20447;-77
2022/10/18 10:42:55;;;;;;;6.63;4.17;;;;;;;;;;5062353;28;20455;-74
2022/10/18 10:45:24;;;;;;;5.47;4.20;;;;;;;;;;5053821;28;20432;-76
2022/10/18 10:47:52;;;;;;;5.97;4.33;;;;;;;;;;5054842;28;20437;-75
2022/10/18 10:50:25;;;;;;;8.87;4.10;;;;;;;;;;5054451;28;20438;-76
2022/10/18 10:52:53;;;;;;;6.93;4.67;;;;;;;;;;5053794;28;20446;-78
2022/10/18 10:55:21;;;;;;;4.60;3.83;;;;;;;;;;5056418;28;20445;-77
2022/10/18 10:57:49;;;;;;;5.50;4.23;;;;;;;;;;5056976;28;20482;-77
2022/10/18 11:00:36;;;;;;;4.73;4.20;;;;;;;;;;5055380;28;20441;-77
2022/10/18 11:03:06;;;;;;;6.90;4.27;;;;;;;;;;5051267;28;20510;-78
2022/10/18 11:05:42;;;;;;;6.30;3.73;;;;;;;;;;5051141;28;20448;-78
2022/10/18 11:08:10;;;;;;;6.27;5.07;;;;;;;;;;5051139;28;20449;-79
2022/10/18 11:10:41;;;;;;;7.20;4.77;;;;;;;;;;5052402;28;20465;-78
2022/10/18 11:13:22;;;;;;;9.40;4.40;;;;;;;;;;5053272;28;20533;-78
2022/10/18 11:15:53;;;;;;;5.30;4.40;;;;;;;;;;5054968;28;20992;-78
2022/10/18 11:18:22;;;;;;;4.83;4.30;;;;;;;;;;5053277;28;20854;-76
2022/10/18 11:20:53;;;;;;;5.27;4.30;;;;;;;;;;5053868;28;20465;-77
2022/10/18 11:23:23;;;;;;;4.87;4.20;;;;;;;;;;5053153;28;20450;-75
2022/10/18 11:25:58;;;;;;;7.00;4.53;;;;;;;;;;5053497;28;20953;-76
2022/10/18 11:28:33;;;;;;;4.93;4.27;;;;;;;;;;5053426;28;20917;-75
2022/10/18 11:31:07;;;;;;;4.53;4.13;;;;;;;;;;5053537;28;20475;-75
2022/10/18 11:33:39;;;;;;;5.50;4.20;;;;;;;;;;5052841;28;20425;-76
2022/10/18 11:36:09;;;;;;;7.20;4.40;;;;;;;;;;5053665;28;20799;-75
2022/10/18 11:38:42;;;;;;;5.67;4.40;;;;;;;;;;5053605;28;20488;-76
2022/10/18 11:41:29;;;;;;;4.87;4.17;;;;;;;;;;5053183;28;20976;-76
2022/10/18 11:43:58;;;;;;;5.97;4.50;;;;;;;;;;5048132;28;20945;-75
2022/10/18 11:46:30;;;;;;;5.37;3.70;;;;;;;;;;5053877;28;20437;-75
2022/10/18 11:49:02;;;;;;;6.23;4.90;;;;;;;;;;5052359;28;20456;-76
2022/10/18 11:51:35;;;;;;;5.23;4.10;;;;;;;;;;5052468;28;20462;-77
2022/10/18 11:54:15;;;;;;;4.33;3.93;;;;;;;;;;5051578;28;20802;-78
2022/10/18 11:56:43;;;;;;;4.50;3.97;;;;;;;;;;5052161;28;20441;-75
2022/10/18 11:59:18;;;;;;;6.33;4.27;;;;;;;;;;5052318;28;21114;-76
2022/10/18 12:01:51;;;;;;;5.47;4.37;;;;;;;;;;5052366;28;20838;-77
2022/10/18 12:04:20;;;;;;;4.87;4.10;;;;;;;;;;5052137;28;20429;-77
2022/10/18 12:06:50;;;;;;;5.27;4.10;;;;;;;;;;5051748;28;20484;-77
2022/10/18 12:09:22;;;;;;;6.33;3.67;;;;;;;;;;5052554;28;20433;-76
2022/10/18 12:11:52;;;;;;;4.87;4.10;;;;;;;;;;5052074;28;20469;-77
2022/10/18 12:14:23;;;;;;;3.33;2.93;;;;;;;;;;5051511;28;20430;-76
2022/10/18 12:16:50;;;;;;;7.20;3.43;;;;;;;;;;5051581;28;20441;-76
2022/10/18 12:19:19;;;;;;;3.27;2.73;;;;;;;;;;5051584;28;20449;-75
2022/10/18 12:21:47;;;;;;;7.30;3.07;;;;;;;;;;5051790;28;20473;-76
2022/10/18 12:24:17;;;;;;;3.27;2.97;;;;;;;;;;5051909;28;20454;-76
2022/10/18 12:26:47;;;;;;;3.67;2.90;;;;;;;;;;5051957;28;20453;-76
2022/10/18 12:29:18;;;;;;;4.13;2.93;;;;;;;;;;5051885;28;20442;-76
2022/10/18 12:31:47;;;;;;;2.90;2.70;;;;;;;;;;5051345;28;20465;-76
2022/10/18 12:34:24;;;;;;;3.77;3.47;;;;;;;;;;5051349;28;20461;-75
2022/10/18 12:37:08;;;;;;;3.20;2.30;;;;;;;;;;5051595;28;20537;-75
2022/10/18 12:39:39;;;;;;;5.17;2.80;;;;;;;;;;5051403;28;20450;-76
2022/10/18 12:42:06;;;;;;;4.90;2.50;;;;;;;;;;5052090;28;20492;-76
2022/10/18 12:44:34;;;;;;;2.80;2.60;;;;;;;;;;5051062;28;20430;-76
2022/10/18 12:47:03;;;;;;;3.93;2.87;;;;;;;;;;5051435;28;20448;-76
2022/10/18 12:49:31;;;;;;;3.90;2.97;;;;;;;;;;5047586;28;100406;-76
2022/10/18 12:52:00;;;;;;;5.30;2.90;;;;;;;;;;5052136;28;20465;-75
2022/10/18 12:54:28;;;;;;;3.43;3.13;;;;;;;;;;5052429;28;20787;-78
2022/10/18 12:56:57;;;;;;;4.13;2.97;;;;;;;;;;5053547;28;20441;-78
2022/10/18 12:59:52;;;;;;;4.40;4.00;;;;;;;;;;5053118;28;20477;-77
2022/10/18 13:02:20;;;;;;;4.80;4.10;;;;;;;;;;5052705;28;20462;-76
2022/10/18 13:04:48;;;;;;;6.03;3.80;;;;;;;;;;5050583;28;20449;-76
2022/10/18 13:07:19;;;;;;;4.37;3.87;;;;;;;;;;5051915;28;21237;-76
2022/10/18 13:10:01;;;;;;;3.70;3.43;;;;;;;;;;5052245;28;20441;-75
2022/10/18 13:12:49;;;;;;;3.40;3.20;;;;;;;;;;5051831;28;20905;-77
2022/10/18 13:15:24;;;;;;;3.67;3.47;;;;;;;;;;5052252;28;20446;-77
2022/10/18 13:17:54;;;;;;;5.80;3.43;;;;;;;;;;5051541;28;20511;-76
2022/10/18 13:20:25;;;;;;;4.37;3.00;;;;;;;;;;5052054;28;20473;-76
2022/10/18 13:22:57;;;;;;;5.23;2.97;;;;;;;;;;5051672;28;20453;-76
2022/10/18 13:25:27;;;;;;;3.10;2.50;;;;;;;;;;5051977;28;20441;-77
2022/10/18 13:27:59;;;;;;;2.03;1.93;;;;;;;;;;5052324;28;20446;-75
2022/10/18 13:30:32;;;;;;;2.47;2.00;;;;;;;;;;5052226;28;20456;-76
2022/10/18 13:33:05;;;;;;;1.73;1.60;;;;;;;;;;5051725;28;20438;-76
2022/10/18 13:35:59;;;;;;;1.67;1.50;;;;;;;;;;5052097;28;20436;-75
2022/10/18 13:38:38;;;;;;;2.07;1.70;;;;;;;;;;5016162;28;20485;-77
2022/10/18 13:41:06;;;;;;;2.10;1.97;;;;;;;;;;5051527;28;20465;-76
2022/10/18 13:44:03;;;;;;;2.30;2.07;;;;;;;;;;5051121;28;20451;-75
2022/10/18 13:46:48;;;;;;;2.57;1.50;;;;;;;;;;4989591;28;20448;-77
2022/10/18 13:49:24;;;;;;;1.97;1.77;;;;;;;;;;5029609;28;20462;-76
2022/10/18 13:51:55;;;;;;;2.50;2.30;;;;;;;;;;5051837;28;20499;-76
2022/10/18 13:54:37;;;;;;;4.43;2.17;;;;;;;;;;5051162;28;20452;-76
2022/10/18 13:57:12;;;;;;;5.03;2.57;;;;;;;;;;5050894;28;20929;-76
2022/10/18 13:59:57;;;;;;;3.40;2.40;;;;;;;;;;5051399;28;20429;-76
2022/10/18 14:02:39;;;;;;;2.73;2.40;;;;;;;;;;5051942;28;20469;-76
2022/10/18 14:05:14;;;;;;;2.80;2.70;;;;;;;;;;5040004;28;20453;-75
2022/10/18 14:07:42;;;;;;;3.83;2.60;;;;;;;;;;5056669;28;20785;-75
2022/10/18 14:10:11;;;;;;;4.40;2.70;;;;;;;;;;5060160;28;20456;-74
2022/10/18 14:12:40;;;;;;;4.13;3.23;;;;;;;;;;5067439;28;20437;-75
2022/10/18 14:15:10;;;;;;;3.00;2.70;;;;;;;;;;5073834;28;20498;-76
2022/10/18 14:17:41;;;;;;;3.87;2.97;;;;;;;;;;5074921;28;20468;-77
2022/10/18 14:20:15;;;;;;;5.90;3.47;;;;;;;;;;5072237;28;20456;-76
2022/10/18 14:22:44;;;;;;;4.47;3.10;;;;;;;;;;5072042;28;20435;-77
2022/10/18 14:25:19;;;;;;;6.90;3.33;;;;;;;;;;5071735;28;20515;-76
2022/10/18 14:27:46;;;;;;;4.40;3.13;;;;;;;;;;5071247;28;20429;-76
2022/10/18 14:30:14;;;;;;;4.67;3.73;;;;;;;;;;5070736;28;20440;-76
2022/10/18 14:32:44;;;;;;;3.20;2.90;;;;;;;;;;5070597;28;20467;-76
2022/10/18 14:35:18;;;;;;;3.40;3.10;;;;;;;;;;5070786;28;20813;-76
2022/10/18 14:37:47;;;;;;;3.33;3.07;;;;;;;;;;5070499;28;20480;-76
2022/10/18 14:40:26;;;;;;;3.97;3.10;;;;;;;;;;5070503;28;20471;-76
2022/10/18 14:42:53;;;;;;;4.03;3.30;;;;;;;;;;5070239;28;20421;-77
2022/10/18 14:45:22;;;;;;;3.37;3.07;;;;;;;;;;5070952;28;20444;-76
2022/10/18 14:47:49;;;;;;;4.73;3.43;;;;;;;;;;5070376;28;20456;-76
2022/10/18 14:50:25;;;;;;;5.70;3.30;;;;;;;;;;5070485;28;20459;-76
2022/10/18 14:52:52;;;;;;;3.40;3.10;;;;;;;;;;5069982;28;20448;-75
2022/10/18 14:55:26;;;;;;;3.37;3.17;;;;;;;;;;5070562;28;20448;-76